createdAt,value
2018-01-25T00:00:16.976Z,99.90
2018-01-25T00:01:21.157Z,99.90
2018-01-25T00:02:25.458Z,99.90
2018-01-25T00:03:29.708Z,99.90
2018-01-25T00:04:33.944Z,99.90
2018-01-25T00:05:38.412Z,99.90
2018-01-25T00:06:42.602Z,99.90
2018-01-25T00:07:46.786Z,99.90
2018-01-25T00:08:50.947Z,99.90
2018-01-25T00:09:56.785Z,99.90
2018-01-25T00:11:01.558Z,99.90
2018-01-25T00:12:05.969Z,99.90
2018-01-25T00:13:10.375Z,99.90
2018-01-25T00:14:14.540Z,99.90
2018-01-25T00:15:18.718Z,99.90
2018-01-25T00:16:22.903Z,99.90
2018-01-25T00:17:27.440Z,99.90
2018-01-25T00:18:31.948Z,99.90
2018-01-25T00:19:36.243Z,99.90
2018-01-25T00:20:40.496Z,99.90
2018-01-25T00:21:44.678Z,99.90
2018-01-25T00:22:48.930Z,99.90
2018-01-25T00:23:53.104Z,99.90
2018-01-25T00:24:57.488Z,99.90
2018-01-25T00:26:02.860Z,99.90
2018-01-25T00:27:08.059Z,99.90
2018-01-25T00:28:13.061Z,99.90
2018-01-25T00:29:17.339Z,99.90
2018-01-25T00:30:21.527Z,99.90
2018-01-25T00:31:25.883Z,99.90
2018-01-25T00:32:31.662Z,99.90
2018-01-25T00:33:36.642Z,99.90
2018-01-25T00:34:40.876Z,99.90
2018-01-25T00:35:45.108Z,99.90
2018-01-25T00:36:49.305Z,99.90
2018-01-25T00:37:53.476Z,99.90
2018-01-25T00:38:58.066Z,99.90
2018-01-25T00:40:02.870Z,99.90
2018-01-25T00:41:08.404Z,99.90
2018-01-25T00:42:12.584Z,99.90
2018-01-25T00:43:16.753Z,99.90
2018-01-25T00:44:22.023Z,99.90
2018-01-25T00:45:26.309Z,99.90
2018-01-25T00:46:30.669Z,99.90
2018-01-25T00:47:35.389Z,99.90
2018-01-25T00:48:39.605Z,99.90
2018-01-25T00:49:43.816Z,99.90
2018-01-25T00:50:48.747Z,99.90
2018-01-25T00:51:52.939Z,99.90
2018-01-25T00:52:57.219Z,99.90
2018-01-25T00:54:01.819Z,99.90
2018-01-25T00:55:06.890Z,99.90
2018-01-25T00:56:11.918Z,99.90
2018-01-25T00:57:16.086Z,99.90
2018-01-25T00:58:20.270Z,99.90
2018-01-25T00:59:24.447Z,99.90
2018-01-25T01:00:29.045Z,99.90
2018-01-25T01:01:33.589Z,99.90
2018-01-25T01:02:37.975Z,99.90
2018-01-25T01:03:42.957Z,99.90
2018-01-25T01:04:47.123Z,99.90
2018-01-25T01:05:52.066Z,99.90
2018-01-25T01:06:57.438Z,99.90
2018-01-25T01:08:02.137Z,99.90
2018-01-25T01:09:06.545Z,99.90
2018-01-25T01:10:10.760Z,99.90
2018-01-25T01:11:15.907Z,99.90
2018-01-25T01:12:20.115Z,99.90
2018-01-25T01:13:25.332Z,99.90
2018-01-25T01:14:29.781Z,99.90
2018-01-25T01:15:34.078Z,99.90
2018-01-25T01:16:38.573Z,99.90
2018-01-25T01:17:42.772Z,99.90
2018-01-25T01:18:46.981Z,99.90
2018-01-25T01:19:51.956Z,99.90
2018-01-25T01:20:56.230Z,99.90
2018-01-25T01:22:01.746Z,99.90
2018-01-25T01:23:06.350Z,99.90
2018-01-25T01:24:11.351Z,99.90
2018-01-25T01:25:15.519Z,99.90
2018-01-25T01:26:20.533Z,99.90
2018-01-25T01:27:25.486Z,99.90
2018-01-25T01:28:29.884Z,99.90
2018-01-25T01:29:34.193Z,99.90
2018-01-25T01:30:39.179Z,99.90
2018-01-25T01:31:43.415Z,99.90
2018-01-25T01:32:47.635Z,99.90
2018-01-25T01:33:52.104Z,99.90
2018-01-25T01:34:56.372Z,99.90
2018-01-25T01:36:01.583Z,99.90
2018-01-25T01:37:05.965Z,99.90
2018-01-25T01:38:10.471Z,99.90
2018-01-25T01:39:14.636Z,99.90
2018-01-25T01:40:18.892Z,99.90
2018-01-25T01:41:23.056Z,99.90
2018-01-25T01:42:27.555Z,99.90
2018-01-25T01:43:31.993Z,99.90
2018-01-25T01:44:36.748Z,99.90
2018-01-25T01:45:40.972Z,99.90
2018-01-25T01:46:45.126Z,99.90
2018-01-25T01:47:50.269Z,99.90
2018-01-25T01:48:54.476Z,99.90
2018-01-25T01:49:59.078Z,99.90
2018-01-25T01:51:03.294Z,99.90
2018-01-25T01:52:08.239Z,99.90
2018-01-25T01:53:12.503Z,99.90
2018-01-25T01:54:16.665Z,99.90
2018-01-25T01:55:20.883Z,99.90
2018-01-25T01:56:26.335Z,99.90
2018-01-25T01:57:30.722Z,99.90
2018-01-25T01:58:35.752Z,99.90
2018-01-25T01:59:39.955Z,99.90
2018-01-25T02:00:44.149Z,99.90
2018-01-25T02:01:48.313Z,99.90
2018-01-25T02:02:53.243Z,99.90
2018-01-25T02:03:58.472Z,99.90
2018-01-25T02:05:02.875Z,99.90
2018-01-25T02:06:07.206Z,99.90
2018-01-25T02:07:11.411Z,99.90
2018-01-25T02:08:16.340Z,99.90
2018-01-25T02:09:21.343Z,99.90
2018-01-25T02:10:25.599Z,99.90
2018-01-25T02:11:29.944Z,99.90
2018-01-25T02:12:34.431Z,99.90
2018-01-25T02:13:38.665Z,99.90
2018-01-25T02:14:42.856Z,99.90
2018-01-25T02:15:47.129Z,99.90
2018-01-25T02:16:52.091Z,99.90
2018-01-25T02:17:56.882Z,99.90
2018-01-25T02:19:02.019Z,99.90
2018-01-25T02:20:07.029Z,99.90
2018-01-25T02:21:11.320Z,99.90
2018-01-25T02:22:15.484Z,99.90
2018-01-25T02:23:20.446Z,99.90
2018-01-25T02:24:24.635Z,99.90
2018-01-25T02:25:29.562Z,99.90
2018-01-25T02:26:33.953Z,99.90
2018-01-25T02:27:38.388Z,99.90
2018-01-25T02:28:42.579Z,99.90
2018-01-25T02:29:47.556Z,99.90
2018-01-25T02:30:51.791Z,99.90
2018-01-25T02:31:56.094Z,99.90
2018-01-25T02:33:01.367Z,99.90
2018-01-25T02:34:05.646Z,99.90
2018-01-25T02:35:09.831Z,99.90
2018-01-25T02:36:14.020Z,99.90
2018-01-25T02:37:18.202Z,99.90
2018-01-25T02:38:22.761Z,99.90
2018-01-25T02:39:27.744Z,99.90
2018-01-25T02:40:32.952Z,99.90
2018-01-25T02:41:37.529Z,99.90
2018-01-25T02:42:41.766Z,99.90
2018-01-25T02:43:46.000Z,99.90
2018-01-25T02:44:50.186Z,99.90
2018-01-25T02:45:54.399Z,99.90
2018-01-25T02:46:59.481Z,99.90
2018-01-25T02:48:03.803Z,99.90
2018-01-25T02:49:08.351Z,99.90
2018-01-25T02:50:12.548Z,99.90
2018-01-25T02:51:16.744Z,99.90
2018-01-25T02:52:21.708Z,99.90
2018-01-25T02:53:25.946Z,99.90
2018-01-25T02:54:30.751Z,99.90
2018-01-25T02:55:35.059Z,99.90
2018-01-25T02:56:39.498Z,99.90
2018-01-25T02:57:43.673Z,99.90
2018-01-25T02:58:47.831Z,99.90
2018-01-25T02:59:52.070Z,99.90
2018-01-25T03:00:57.164Z,99.90
2018-01-25T03:02:01.491Z,99.90
2018-01-25T03:03:06.666Z,99.90
2018-01-25T03:04:10.852Z,99.90
2018-01-25T03:05:16.637Z,99.90
2018-01-25T03:06:20.831Z,99.90
2018-01-25T03:07:26.108Z,99.90
2018-01-25T03:08:31.734Z,99.90
2018-01-25T03:09:36.193Z,99.90
2018-01-25T03:10:41.212Z,99.90
2018-01-25T03:11:45.430Z,99.90
2018-01-25T03:12:49.639Z,99.90
2018-01-25T03:13:53.810Z,99.90
2018-01-25T03:14:58.127Z,99.90
2018-01-25T03:16:02.443Z,99.90
2018-01-25T03:17:06.732Z,99.90
2018-01-25T03:18:11.024Z,99.90
2018-01-25T03:19:15.959Z,99.90
2018-01-25T03:20:20.150Z,99.90
2018-01-25T03:21:25.107Z,99.90
2018-01-25T03:22:29.755Z,99.90
2018-01-25T03:23:34.044Z,99.90
2018-01-25T03:24:38.280Z,99.90
2018-01-25T03:25:42.503Z,99.90
2018-01-25T03:26:47.598Z,99.90
2018-01-25T03:27:51.793Z,99.90
2018-01-25T03:28:57.534Z,99.90
2018-01-25T03:30:02.119Z,99.90
2018-01-25T03:31:06.468Z,99.90
2018-01-25T03:32:11.471Z,99.90
2018-01-25T03:33:15.655Z,99.90
2018-01-25T03:34:19.820Z,99.90
2018-01-25T03:35:24.777Z,99.90
2018-01-25T03:36:29.702Z,99.90
2018-01-25T03:37:34.380Z,99.90
2018-01-25T03:38:39.367Z,99.90
2018-01-25T03:39:43.530Z,99.90
2018-01-25T03:40:49.424Z,99.90
2018-01-25T03:41:53.634Z,99.90
2018-01-25T03:42:57.943Z,99.90
2018-01-25T03:44:02.199Z,99.90
2018-01-25T03:45:07.275Z,99.90
2018-01-25T03:46:11.496Z,99.90
2018-01-25T03:47:15.703Z,99.90
2018-01-25T03:48:19.891Z,99.90
2018-01-25T03:49:24.849Z,99.90
2018-01-25T03:50:29.212Z,99.90
2018-01-25T03:51:34.327Z,99.90
2018-01-25T03:52:38.984Z,99.90
2018-01-25T03:53:43.924Z,99.90
2018-01-25T03:54:48.083Z,99.90
2018-01-25T03:55:52.271Z,99.90
2018-01-25T03:56:56.901Z,99.90
2018-01-25T03:58:01.656Z,99.90
2018-01-25T03:59:06.900Z,99.90
2018-01-25T04:00:11.180Z,99.90
2018-01-25T04:01:15.342Z,99.90
2018-01-25T04:02:19.511Z,99.90
2018-01-25T04:03:25.235Z,99.90
2018-01-25T04:04:29.686Z,99.90
2018-01-25T04:05:34.052Z,99.90
2018-01-25T04:06:38.294Z,99.90
2018-01-25T04:07:42.533Z,99.90
2018-01-25T04:08:47.496Z,99.90
2018-01-25T04:09:51.668Z,99.90
2018-01-25T04:10:56.700Z,99.90
2018-01-25T04:12:01.810Z,99.90
2018-01-25T04:13:06.096Z,99.90
2018-01-25T04:14:10.303Z,99.90
2018-01-25T04:15:14.523Z,99.90
2018-01-25T04:16:18.773Z,99.90
2018-01-25T04:17:23.736Z,99.90
2018-01-25T04:18:28.059Z,99.90
2018-01-25T04:19:32.355Z,99.90
2018-01-25T04:20:36.614Z,99.90
2018-01-25T04:21:42.341Z,99.90
2018-01-25T04:22:46.543Z,99.90
2018-01-25T04:23:51.148Z,99.90
2018-01-25T04:24:55.338Z,99.90
2018-01-25T04:26:00.344Z,99.90
2018-01-25T04:27:04.621Z,99.90
2018-01-25T04:28:09.743Z,99.90
2018-01-25T04:29:13.981Z,99.90
2018-01-25T04:30:18.175Z,99.90
2018-01-25T04:31:22.383Z,99.90
2018-01-25T04:32:26.664Z,99.90
2018-01-25T04:33:31.366Z,99.90
2018-01-25T04:34:36.618Z,99.90
2018-01-25T04:35:42.133Z,99.90
2018-01-25T04:36:47.071Z,99.90
2018-01-25T04:37:52.031Z,99.90
2018-01-25T04:38:56.582Z,99.90
2018-01-25T04:40:01.759Z,99.90
2018-01-25T04:41:06.720Z,99.90
2018-01-25T04:42:10.960Z,99.90
2018-01-25T04:43:15.208Z,99.90
2018-01-25T04:44:20.175Z,99.90
2018-01-25T04:45:24.400Z,99.90
2018-01-25T04:46:29.496Z,99.90
2018-01-25T04:47:33.751Z,99.90
2018-01-25T04:48:38.088Z,99.90
2018-01-25T04:49:43.075Z,99.90
2018-01-25T04:50:47.287Z,99.90
2018-01-25T04:51:51.551Z,99.90
2018-01-25T04:52:57.214Z,99.90
2018-01-25T04:54:01.709Z,99.90
2018-01-25T04:55:06.743Z,99.90
2018-01-25T04:56:11.715Z,99.90
2018-01-25T04:57:15.962Z,99.90
2018-01-25T04:58:20.144Z,99.90
2018-01-25T04:59:24.324Z,99.90
2018-01-25T05:00:28.930Z,99.90
2018-01-25T05:01:33.233Z,99.90
2018-01-25T05:02:38.474Z,99.90
2018-01-25T05:03:42.735Z,99.90
2018-01-25T05:04:46.911Z,99.90
2018-01-25T05:05:51.088Z,99.90
2018-01-25T05:06:57.721Z,99.90
2018-01-25T05:08:02.388Z,99.90
2018-01-25T05:09:06.979Z,99.90
2018-01-25T05:10:11.429Z,99.90
2018-01-25T05:11:16.405Z,99.90
2018-01-25T05:12:20.628Z,99.90
2018-01-25T05:13:24.842Z,99.90
2018-01-25T05:14:29.743Z,99.90
2018-01-25T05:15:34.114Z,99.90
2018-01-25T05:16:38.692Z,99.90
2018-01-25T05:17:57.104Z,99.90
2018-01-25T05:19:02.327Z,99.90
2018-01-25T05:20:06.842Z,99.90
2018-01-25T05:21:11.819Z,99.90
2018-01-25T05:22:16.092Z,99.90
2018-01-25T05:23:20.296Z,99.90
2018-01-25T05:24:25.259Z,99.90
2018-01-25T05:25:31.269Z,99.90
2018-01-25T05:26:36.826Z,99.90
2018-01-25T05:27:41.466Z,99.90
2018-01-25T05:28:45.642Z,99.90
2018-01-25T05:29:50.603Z,99.90
2018-01-25T05:30:54.828Z,99.90
2018-01-25T05:31:59.683Z,99.90
2018-01-25T05:33:04.221Z,99.90
2018-01-25T05:34:08.555Z,99.90
2018-01-25T05:35:12.787Z,99.90
2018-01-25T05:36:16.985Z,99.90
2018-01-25T05:37:21.174Z,99.90
2018-01-25T05:38:27.182Z,99.90
2018-01-25T05:39:32.567Z,99.90
2018-01-25T05:40:37.274Z,99.90
2018-01-25T05:41:41.505Z,99.90
2018-01-25T05:42:46.494Z,99.90
2018-01-25T05:43:50.704Z,99.90
2018-01-25T05:44:54.905Z,99.90
2018-01-25T05:46:00.914Z,99.90
2018-01-25T05:47:05.666Z,99.90
2018-01-25T05:48:09.907Z,99.90
2018-01-25T05:49:14.198Z,99.90
2018-01-25T05:50:18.390Z,99.90
2018-01-25T05:51:22.608Z,99.90
2018-01-25T05:52:27.291Z,99.90
2018-01-25T05:53:31.712Z,99.90
2018-01-25T05:54:36.165Z,99.90
2018-01-25T05:55:40.403Z,99.90
2018-01-25T05:56:44.603Z,99.90
2018-01-25T05:57:48.808Z,99.90
2018-01-25T05:58:53.025Z,99.90
2018-01-25T05:59:58.292Z,99.90
2018-01-25T06:01:02.705Z,99.90
2018-01-25T06:02:08.151Z,99.90
2018-01-25T06:03:13.113Z,99.90
2018-01-25T06:04:17.355Z,99.90
2018-01-25T06:05:21.592Z,99.90
2018-01-25T06:06:26.653Z,99.90
2018-01-25T06:07:31.136Z,99.90
2018-01-25T06:08:35.439Z,99.90
2018-01-25T06:09:39.744Z,99.90
2018-01-25T06:10:43.943Z,99.90
2018-01-25T06:11:48.140Z,99.90
2018-01-25T06:12:52.332Z,99.90
2018-01-25T06:13:56.690Z,99.90
2018-01-25T06:15:01.368Z,99.90
2018-01-25T06:16:06.258Z,99.90
2018-01-25T06:17:10.748Z,99.90
2018-01-25T06:18:14.933Z,99.90
2018-01-25T06:19:19.157Z,99.80
2018-01-25T06:20:23.347Z,99.70
2018-01-25T06:21:27.651Z,99.70
2018-01-25T06:22:32.040Z,99.70
2018-01-25T06:23:37.181Z,99.50
2018-01-25T06:24:41.444Z,99.50
2018-01-25T06:25:45.635Z,99.50
2018-01-25T06:26:49.803Z,99.50
2018-01-25T06:27:54.745Z,99.50
2018-01-25T06:29:00.029Z,99.50
2018-01-25T06:30:03.786Z,99.60
2018-01-25T06:31:08.407Z,99.60
2018-01-25T06:32:12.611Z,99.90
2018-01-25T06:33:17.567Z,99.50
2018-01-25T06:34:22.175Z,99.50
2018-01-25T06:35:26.828Z,99.50
2018-01-25T06:36:31.723Z,99.60
2018-01-25T06:37:35.986Z,99.50
2018-01-25T06:38:40.203Z,99.50
2018-01-25T06:39:44.685Z,99.50
2018-01-25T06:40:48.861Z,99.50
2018-01-25T06:41:53.831Z,99.50
2018-01-25T06:42:58.369Z,99.50
2018-01-25T06:44:02.859Z,99.50
2018-01-25T06:45:07.099Z,99.50
2018-01-25T06:46:12.080Z,99.50
2018-01-25T06:47:16.320Z,99.50
2018-01-25T06:48:20.511Z,99.40
2018-01-25T06:49:25.032Z,99.40
2018-01-25T06:50:29.501Z,99.30
2018-01-25T06:51:34.476Z,99.20
2018-01-25T06:52:38.767Z,99.20
2018-01-25T06:53:42.912Z,99.20
2018-01-25T06:54:47.117Z,99.20
2018-01-25T06:55:51.311Z,99.20
2018-01-25T06:56:55.527Z,99.20
2018-01-25T06:58:00.443Z,99.20
2018-01-25T06:59:04.717Z,99.10
2018-01-25T07:00:09.045Z,99.20
2018-01-25T07:01:13.992Z,98.90
2018-01-25T07:02:18.180Z,98.90
2018-01-25T07:03:23.176Z,98.80
2018-01-25T07:04:27.459Z,98.70
2018-01-25T07:05:31.718Z,98.70
2018-01-25T07:06:36.056Z,98.80
2018-01-25T07:07:40.310Z,98.80
2018-01-25T07:08:44.495Z,98.80
2018-01-25T07:09:48.700Z,98.70
2018-01-25T07:10:52.919Z,98.80
2018-01-25T07:11:58.675Z,98.80
2018-01-25T07:13:03.382Z,98.90
2018-01-25T07:14:07.673Z,98.80
2018-01-25T07:15:11.901Z,98.70
2018-01-25T07:16:16.884Z,98.60
2018-01-25T07:17:21.088Z,98.60
2018-01-25T07:18:25.364Z,98.60
2018-01-25T07:19:30.284Z,98.50
2018-01-25T07:20:34.557Z,98.60
2018-01-25T07:21:39.599Z,98.90
2018-01-25T07:22:44.564Z,98.90
2018-01-25T07:23:48.800Z,98.60
2018-01-25T07:24:52.990Z,98.60
2018-01-25T07:25:57.537Z,98.50
2018-01-25T07:27:01.983Z,98.50
2018-01-25T07:28:06.491Z,98.60
2018-01-25T07:29:12.243Z,98.50
2018-01-25T07:30:16.419Z,98.50
2018-01-25T07:31:20.633Z,98.60
2018-01-25T07:32:24.916Z,98.60
2018-01-25T07:33:31.173Z,98.60
2018-01-25T07:34:35.578Z,98.60
2018-01-25T07:35:39.780Z,98.60
2018-01-25T07:36:44.773Z,98.70
2018-01-25T07:37:48.987Z,98.70
2018-01-25T07:38:53.191Z,98.80
2018-01-25T07:39:57.666Z,98.70
2018-01-25T07:41:02.532Z,98.70
2018-01-25T07:42:06.776Z,98.80
2018-01-25T07:43:11.719Z,98.70
2018-01-25T07:44:15.921Z,98.70
2018-01-25T07:45:21.262Z,98.70
2018-01-25T07:46:25.664Z,98.70
2018-01-25T07:47:30.165Z,98.70
2018-01-25T07:48:34.379Z,98.70
2018-01-25T07:49:38.551Z,98.70
2018-01-25T07:50:42.758Z,98.90
2018-01-25T07:51:46.942Z,98.70
2018-01-25T07:52:51.106Z,98.70
2018-01-25T07:53:55.469Z,98.80
2018-01-25T07:55:00.386Z,98.80
2018-01-25T07:56:05.369Z,98.90
2018-01-25T07:57:09.591Z,98.90
2018-01-25T07:58:20.365Z,99.00
2018-01-25T07:59:24.573Z,99.00
2018-01-25T08:00:28.941Z,99.10
2018-01-25T08:01:33.343Z,99.10
2018-01-25T08:02:37.747Z,99.20
2018-01-25T08:03:42.726Z,99.30
2018-01-25T08:04:46.901Z,99.30
2018-01-25T08:05:51.065Z,99.30
2018-01-25T08:06:55.297Z,99.40
2018-01-25T08:08:00.548Z,99.40
2018-01-25T08:09:05.670Z,99.40
2018-01-25T08:10:10.131Z,99.40
2018-01-25T08:11:14.494Z,99.40
2018-01-25T08:12:19.536Z,99.50
2018-01-25T08:13:29.313Z,99.50
2018-01-25T08:14:33.607Z,99.60
2018-01-25T08:15:38.061Z,99.60
2018-01-25T08:16:47.716Z,99.60
2018-01-25T08:17:51.943Z,99.70
2018-01-25T08:18:56.953Z,99.70
2018-01-25T08:20:01.690Z,99.70
2018-01-25T08:21:06.856Z,99.70
2018-01-25T08:22:11.055Z,99.70
2018-01-25T08:23:15.324Z,99.70
2018-01-25T08:24:19.697Z,99.70
2018-01-25T08:25:24.691Z,99.70
2018-01-25T08:26:30.135Z,99.70
2018-01-25T08:27:35.216Z,99.70
2018-01-25T08:28:42.384Z,99.70
2018-01-25T08:29:46.583Z,99.70
2018-01-25T08:30:50.781Z,99.70
2018-01-25T08:31:55.903Z,99.70
2018-01-25T08:33:00.829Z,99.70
2018-01-25T08:34:05.893Z,99.60
2018-01-25T08:35:10.247Z,99.60
2018-01-25T08:36:14.634Z,99.60
2018-01-25T08:37:18.667Z,99.70
2018-01-25T08:38:22.923Z,99.60
2018-01-25T08:39:28.177Z,99.70
2018-01-25T08:40:32.492Z,99.70
2018-01-25T08:41:36.727Z,99.70
2018-01-25T08:42:41.001Z,99.70
2018-01-25T08:43:45.174Z,99.60
2018-01-25T08:44:49.364Z,99.60
2018-01-25T08:45:53.923Z,99.60
2018-01-25T08:46:59.585Z,99.70
2018-01-25T08:48:04.591Z,99.70
2018-01-25T08:49:08.875Z,99.70
2018-01-25T08:50:13.068Z,99.60
2018-01-25T08:51:17.641Z,99.70
2018-01-25T08:52:22.671Z,99.70
2018-01-25T08:53:27.814Z,99.70
2018-01-25T08:54:32.123Z,99.70
2018-01-25T08:55:36.366Z,99.70
2018-01-25T08:56:40.588Z,99.70
2018-01-25T08:57:44.772Z,99.70
2018-01-25T08:58:48.991Z,99.70
2018-01-25T08:59:53.235Z,99.90
2018-01-25T09:00:57.741Z,99.80
2018-01-25T09:02:02.211Z,99.70
2018-01-25T09:03:06.804Z,99.70
2018-01-25T09:04:11.827Z,99.70
2018-01-25T09:05:16.021Z,99.70
2018-01-25T09:06:20.191Z,99.70
2018-01-25T09:07:24.499Z,99.80
2018-01-25T09:08:29.568Z,99.80
2018-01-25T09:09:34.619Z,99.80
2018-01-25T09:10:38.929Z,99.80
2018-01-25T09:11:43.274Z,99.80
2018-01-25T09:12:48.277Z,99.80
2018-01-25T09:13:52.476Z,99.80
2018-01-25T09:14:56.794Z,99.80
2018-01-25T09:16:02.421Z,99.80
2018-01-25T09:17:07.124Z,99.90
2018-01-25T09:18:11.414Z,99.90
2018-01-25T09:19:15.632Z,99.90
2018-01-25T09:20:19.832Z,99.80
2018-01-25T09:21:24.843Z,99.90
2018-01-25T09:22:29.749Z,99.90
2018-01-25T09:23:34.935Z,99.90
2018-01-25T09:24:39.332Z,99.90
2018-01-25T09:25:44.289Z,99.80
2018-01-25T09:26:48.528Z,99.80
2018-01-25T09:27:52.763Z,99.70
2018-01-25T09:28:57.968Z,99.90
2018-01-25T09:30:03.358Z,99.60
2018-01-25T09:31:08.144Z,99.60
2018-01-25T09:32:12.374Z,99.60
2018-01-25T09:33:16.576Z,99.70
2018-01-25T09:34:20.749Z,99.70
2018-01-25T09:35:24.936Z,99.70
2018-01-25T09:36:29.317Z,99.70
2018-01-25T09:37:34.478Z,99.80
2018-01-25T09:38:38.785Z,99.80
2018-01-25T09:39:43.743Z,99.70
2018-01-25T09:40:47.950Z,99.80
2018-01-25T09:41:52.180Z,99.80
2018-01-25T09:42:56.634Z,99.70
2018-01-25T09:44:01.545Z,99.70
2018-01-25T09:45:07.407Z,99.70
2018-01-25T09:46:11.653Z,99.60
2018-01-25T09:47:15.864Z,99.50
2018-01-25T09:48:20.084Z,99.50
2018-01-25T09:49:24.323Z,99.40
2018-01-25T09:50:28.799Z,99.40
2018-01-25T09:51:34.139Z,99.30
2018-01-25T09:52:38.416Z,99.20
2018-01-25T09:53:42.623Z,99.30
2018-01-25T09:54:46.971Z,99.20
2018-01-25T09:55:51.148Z,99.10
2018-01-25T09:56:57.295Z,99.20
2018-01-25T09:58:02.404Z,99.20
2018-01-25T09:59:07.068Z,99.10
2018-01-25T10:00:11.996Z,99.20
2018-01-25T10:01:17.020Z,99.10
2018-01-25T10:02:21.256Z,99.10
2018-01-25T10:03:26.705Z,98.90
2018-01-25T10:04:31.325Z,98.80
2018-01-25T10:05:35.678Z,98.80
2018-01-25T10:06:39.970Z,98.80
2018-01-25T10:07:44.157Z,98.80
2018-01-25T10:08:48.379Z,98.80
2018-01-25T10:09:52.592Z,98.70
2018-01-25T10:10:57.266Z,98.80
2018-01-25T10:12:01.959Z,98.90
2018-01-25T10:13:07.148Z,98.60
2018-01-25T10:14:11.431Z,98.60
2018-01-25T10:15:15.690Z,98.70
2018-01-25T10:16:19.994Z,98.70
2018-01-25T10:17:24.277Z,98.50
2018-01-25T10:18:28.830Z,98.30
2018-01-25T10:19:33.187Z,98.20
2018-01-25T10:20:37.637Z,98.40
2018-01-25T10:21:42.588Z,98.50
2018-01-25T10:22:46.875Z,98.50
2018-01-25T10:23:52.022Z,98.40
2018-01-25T10:24:57.820Z,98.40
2018-01-25T10:26:02.092Z,98.20
2018-01-25T10:27:06.536Z,98.20
2018-01-25T10:28:10.905Z,98.30
2018-01-25T10:29:15.890Z,98.30
2018-01-25T10:30:20.082Z,98.40
2018-01-25T10:31:24.280Z,98.30
2018-01-25T10:32:28.924Z,98.20
2018-01-25T10:33:33.520Z,98.20
2018-01-25T10:34:38.234Z,98.10
2018-01-25T10:35:42.407Z,98.10
2018-01-25T10:36:46.645Z,98.10
2018-01-25T10:37:51.701Z,98.00
2018-01-25T10:38:55.958Z,98.10
2018-01-25T10:40:00.281Z,98.00
2018-01-25T10:41:05.849Z,98.10
2018-01-25T10:42:10.088Z,98.10
2018-01-25T10:43:14.383Z,98.00
2018-01-25T10:44:18.592Z,98.00
2018-01-25T10:45:22.791Z,98.00
2018-01-25T10:46:29.812Z,98.00
2018-01-25T10:47:34.272Z,97.90
2018-01-25T10:48:38.603Z,97.90
2018-01-25T10:49:42.822Z,98.10
2018-01-25T10:50:47.023Z,97.90
2018-01-25T10:51:51.204Z,97.90
2018-01-25T10:52:55.429Z,97.80
2018-01-25T10:54:00.043Z,97.70
2018-01-25T10:55:04.407Z,97.80
2018-01-25T10:56:08.634Z,97.70
2018-01-25T10:57:12.847Z,97.60
2018-01-25T10:58:17.243Z,97.50
2018-01-25T10:59:21.442Z,97.50
2018-01-25T11:00:25.831Z,97.40
2018-01-25T11:01:35.854Z,97.50
2018-01-25T11:02:40.103Z,97.40
2018-01-25T11:03:44.399Z,97.30
2018-01-25T11:04:49.384Z,97.20
2018-01-25T11:05:53.583Z,97.20
2018-01-25T11:06:58.298Z,97.30
2018-01-25T11:08:03.643Z,97.10
2018-01-25T11:09:08.038Z,97.10
2018-01-25T11:10:12.405Z,97.10
2018-01-25T11:11:16.604Z,97.00
2018-01-25T11:12:20.786Z,97.10
2018-01-25T11:13:24.999Z,97.20
2018-01-25T11:14:29.928Z,97.10
2018-01-25T11:15:34.273Z,96.90
2018-01-25T11:16:39.315Z,97.20
2018-01-25T11:17:44.301Z,97.40
2018-01-25T11:18:48.495Z,97.00
2018-01-25T11:19:52.729Z,97.00
2018-01-25T11:20:57.333Z,97.00
2018-01-25T11:22:03.256Z,96.90
2018-01-25T11:23:07.970Z,96.90
2018-01-25T11:24:12.220Z,96.90
2018-01-25T11:25:16.485Z,97.10
2018-01-25T11:26:20.684Z,97.10
2018-01-25T11:27:24.895Z,97.00
2018-01-25T11:28:31.215Z,97.10
2018-01-25T11:29:35.509Z,97.10
2018-01-25T11:30:39.776Z,97.10
2018-01-25T11:31:44.039Z,97.10
2018-01-25T11:32:48.247Z,96.90
2018-01-25T11:33:52.428Z,96.80
2018-01-25T11:34:57.763Z,96.40
2018-01-25T11:36:02.471Z,96.40
2018-01-25T11:37:07.553Z,96.60
2018-01-25T11:38:11.751Z,96.40
2018-01-25T11:39:16.063Z,96.40
2018-01-25T11:40:20.287Z,96.50
2018-01-25T11:41:24.514Z,96.70
2018-01-25T11:42:29.091Z,96.60
2018-01-25T11:43:34.635Z,96.20
2018-01-25T11:44:38.900Z,96.20
2018-01-25T11:45:43.107Z,96.30
2018-01-25T11:46:47.359Z,95.90
2018-01-25T11:47:52.311Z,95.90
2018-01-25T11:48:56.690Z,95.90
2018-01-25T11:50:01.796Z,95.80
2018-01-25T11:51:06.209Z,95.80
2018-01-25T11:52:10.540Z,96.00
2018-01-25T11:53:14.756Z,95.80
2018-01-25T11:54:20.165Z,95.60
2018-01-25T11:55:24.371Z,95.80
2018-01-25T11:56:29.119Z,96.00
2018-01-25T11:57:33.888Z,96.10
2018-01-25T11:58:38.524Z,95.80
2018-01-25T11:59:42.731Z,95.40
2018-01-25T12:00:46.970Z,95.60
2018-01-25T12:01:51.556Z,95.50
2018-01-25T12:02:55.819Z,95.50
2018-01-25T12:04:01.412Z,95.50
2018-01-25T12:05:05.948Z,95.80
2018-01-25T12:06:10.184Z,95.70
2018-01-25T12:07:14.368Z,95.90
2018-01-25T12:08:18.620Z,95.90
2018-01-25T12:09:22.816Z,95.50
2018-01-25T12:10:27.827Z,95.40
2018-01-25T12:11:32.169Z,95.30
2018-01-25T12:12:36.514Z,95.30
2018-01-25T12:13:40.783Z,95.30
2018-01-25T12:14:45.076Z,95.40
2018-01-25T12:15:49.247Z,95.40
2018-01-25T12:16:54.226Z,95.60
2018-01-25T12:17:59.772Z,95.60
2018-01-25T12:19:04.173Z,95.50
2018-01-25T12:20:08.539Z,95.20
2018-01-25T12:21:13.598Z,95.10
2018-01-25T12:22:17.794Z,95.00
2018-01-25T12:23:22.783Z,94.90
2018-01-25T12:24:27.878Z,94.90
2018-01-25T12:25:33.142Z,95.40
2018-01-25T12:26:38.322Z,95.40
2018-01-25T12:27:43.282Z,95.10
2018-01-25T12:28:47.557Z,95.10
2018-01-25T12:29:52.500Z,95.60
2018-01-25T12:30:57.751Z,95.70
2018-01-25T12:32:02.139Z,95.70
2018-01-25T12:33:07.320Z,95.20
2018-01-25T12:34:13.054Z,95.40
2018-01-25T12:35:17.219Z,95.40
2018-01-25T12:36:21.404Z,95.30
2018-01-25T12:37:25.658Z,95.20
2018-01-25T12:38:30.351Z,95.20
2018-01-25T12:39:34.672Z,95.00
2018-01-25T12:40:39.732Z,94.70
2018-01-25T12:41:43.954Z,94.70
2018-01-25T12:42:48.132Z,94.70
2018-01-25T12:43:53.115Z,94.60
2018-01-25T12:44:57.369Z,94.60
2018-01-25T12:46:02.345Z,94.20
2018-01-25T12:47:07.603Z,94.10
2018-01-25T12:48:11.804Z,94.10
2018-01-25T12:49:16.000Z,94.20
2018-01-25T12:50:20.181Z,94.30
2018-01-25T12:51:25.134Z,94.40
2018-01-25T12:52:30.612Z,94.60
2018-01-25T12:53:35.615Z,94.80
2018-01-25T12:54:39.948Z,94.70
2018-01-25T12:55:44.147Z,94.70
2018-01-25T12:56:48.368Z,94.90
2018-01-25T12:57:52.595Z,94.10
2018-01-25T12:58:58.962Z,94.20
2018-01-25T13:00:03.327Z,94.20
2018-01-25T13:01:07.675Z,94.00
2018-01-25T13:02:11.895Z,93.90
2018-01-25T13:03:16.073Z,93.80
2018-01-25T13:04:20.324Z,93.80
2018-01-25T13:05:24.668Z,93.80
2018-01-25T13:06:29.189Z,94.20
2018-01-25T13:07:33.909Z,94.30
2018-01-25T13:08:38.598Z,94.50
2018-01-25T13:09:43.892Z,94.30
2018-01-25T13:10:48.867Z,94.30
2018-01-25T13:11:53.092Z,94.30
2018-01-25T13:12:58.275Z,94.10
2018-01-25T13:14:02.856Z,94.10
2018-01-25T13:15:07.200Z,93.90
2018-01-25T13:16:11.510Z,93.90
2018-01-25T13:17:15.697Z,93.90
2018-01-25T13:18:19.907Z,94.00
2018-01-25T13:19:24.083Z,94.10
2018-01-25T13:20:30.160Z,94.10
2018-01-25T13:21:35.788Z,94.10
2018-01-25T13:22:40.093Z,94.10
2018-01-25T13:23:45.819Z,94.20
2018-01-25T13:24:50.858Z,94.30
2018-01-25T13:25:55.102Z,94.30
2018-01-25T13:26:59.753Z,94.10
2018-01-25T13:28:04.408Z,94.10
2018-01-25T13:29:08.683Z,94.40
2018-01-25T13:30:12.880Z,94.40
2018-01-25T13:31:17.080Z,94.40
2018-01-25T13:32:22.079Z,94.30
2018-01-25T13:33:32.286Z,94.30
2018-01-25T13:34:36.648Z,94.30
2018-01-25T13:35:41.359Z,94.40
2018-01-25T13:36:45.583Z,94.60
2018-01-25T13:37:49.991Z,94.60
2018-01-25T13:38:54.203Z,94.40
2018-01-25T13:39:59.109Z,94.60
2018-01-25T13:41:03.762Z,94.50
2018-01-25T13:42:08.753Z,94.70
2018-01-25T13:43:12.979Z,94.70
2018-01-25T13:44:17.236Z,94.70
2018-01-25T13:45:22.562Z,94.50
2018-01-25T13:46:27.747Z,94.80
2018-01-25T13:47:32.177Z,94.50
2018-01-25T13:48:36.487Z,94.50
2018-01-25T13:49:40.689Z,94.60
2018-01-25T13:50:44.912Z,94.70
2018-01-25T13:51:49.136Z,94.70